Airfield :
LOGIN :

Register | Disclaimer

   EN    FR    IT 

 










Legend :    VFR   Marginal VFR   IFR   Intensive IFR   Very Intensive IFR
Visi :
Ceiling :
>= 8 km
>= 3000ft
5 to 8 km
1000 to 3000 ft
1500m to 5 km
500 to 1000 ft
800 to 1500m
200 to 500 ft
< 800m
< 200 ft
Symbols :   Thunderstorms  Fog  Heavy snow  Heavy precipitations  Wind > 20 kt
SIGMETs :     Misc.  Thunderstorms  Icing  Turbulence  Mountain Waves  Volcanic Ashes






- Airport Elevation : 124 ft
- IATA code : RNS


LFRN - Rennes

CURRENT METAR :
  • 161330Z AUTO 10004KT 3400 DZ BR BKN005/// BKN009/// BKN014/// ///TCU 09/08 Q0999 TEMPO RA BKN007

EXPIRED METARs :
  • 161300Z AUTO 12004KT 080V160 9999 FEW007/// SCT027/// OVC046/// ///TCU 09/08 Q1000 TEMPO 4000 RA BKN007
  • 161230Z AUTO 09006KT 9999 -RA FEW004/// OVC046/// ///TCU 09/08 Q1000 TEMPO 4000 RA BKN007
  • 161200Z AUTO 12006KT 9000 -RA FEW007/// BKN042/// OVC060/// ///TCU 09/08 Q1001 TEMPO 4000 RA BKN007
  • 161130Z AUTO 12005KT 9999 -RA FEW047/// BKN060/// OVC074/// ///TCU 09/08 Q1001 TEMPO 4000 RA BKN007
  • 161100Z AUTO 13004KT 110V170 7000 RA ///TCU 09/08 Q1001 TEMPO 3000 RA BKN005

TAF TAF LFRN
Valid from the 16 at 12:00 until the 17 at 12:00 UTC


161100Z 1612/1712 VRB05KT 7000 RA BKN040
TEMPO 1612/1708 4000 RA BKN007
BECMG 1616/1618 BKN015
BECMG 1618/1620 36010KT
PROB40
TEMPO 1618/1704 3000 RA BKN003
BECMG 1708/1710 9999 NSW
TEMPO 1708/1710 BKN008
BECMG 1710/1712 30008KT BKN020
ATIS : +33 2 99 67 72 50



MET'MAP, your aeronautical weather chart ! - Copyright ORBIFLY December 2007 - Disclaimer

ORBIFLY MET'MAP TEAM :

Programming & Development : Alexandra Zaïnal
Concept & original design : Baudouin d'Aumeries
Assistance for programming : Marc-Olivier Méhu
Technical & hardware support : Manuel Goepfert

Contact : metmap@orbifly.com




SOURCES & CREDITS :

   NOAA